Time;durP1;ratioP1;P1;durP2;ratioP2;P2;SDS_P1;SDS_P2;PMS_P1;PMS_P2;Temp;Humidity;BMP_temperature;BMP_pressure;BME280_temperature;BME280_humidity;BME280_pressure;Samples;Min_cycle;Max_cycle;Signal;HPM_P1;HPM_P2
2023/05/23 00:01:06;;;;;;;2.95;1.00;;;18.80;77.50;;;;;;4959284;28;20202;-67
2023/05/23 00:03:33;;;;;;;1.10;1.10;;;18.80;77.60;;;;;;4961156;28;20220;-67
2023/05/23 00:06:03;;;;;;;1.10;1.10;;;18.90;77.70;;;;;;4961775;28;20212;-67
2023/05/23 00:08:30;;;;;;;1.30;1.20;;;18.90;77.70;;;;;;4962458;28;20347;-66
2023/05/23 00:10:59;;;;;;;1.00;1.00;;;18.90;77.80;;;;;;4962305;28;20208;-66
2023/05/23 00:13:26;;;;;;;1.20;1.20;;;18.90;77.80;;;;;;4962244;28;20676;-66
2023/05/23 00:15:53;;;;;;;1.20;1.20;;;18.90;77.90;;;;;;4960622;28;20231;-66
2023/05/23 00:18:23;;;;;;;1.20;1.10;;;18.90;77.90;;;;;;4960617;28;20208;-66
2023/05/23 00:20:50;;;;;;;1.25;1.25;;;18.90;78.00;;;;;;4961055;28;20263;-66
2023/05/23 00:23:19;;;;;;;1.20;0.90;;;18.80;77.90;;;;;;4960850;28;20677;-66
2023/05/23 00:25:51;;;;;;;1.02;1.02;;;18.80;77.80;;;;;;4959931;28;20205;-66
2023/05/23 00:28:20;;;;;;;1.20;1.20;;;18.80;78.60;;;;;;4959467;28;20187;-66
2023/05/23 00:30:47;;;;;;;1.17;1.17;;;18.70;77.80;;;;;;4960497;28;20935;-66
2023/05/23 00:33:16;;;;;;;1.17;1.10;;;18.70;77.90;;;;;;4947497;28;20571;-66
2023/05/23 00:35:43;;;;;;;1.00;1.00;;;18.60;77.90;;;;;;4959320;28;20226;-67
2023/05/23 00:38:11;;;;;;;1.00;1.00;;;18.60;77.90;;;;;;4949759;28;20203;-67
2023/05/23 00:40:38;;;;;;;1.20;1.20;;;18.60;78.00;;;;;;4963148;28;20778;-66
2023/05/23 00:43:07;;;;;;;1.10;1.10;;;18.60;78.00;;;;;;4945206;28;20575;-66
2023/05/23 00:45:36;;;;;;;1.00;1.00;;;18.50;78.00;;;;;;4959759;28;20197;-67
2023/05/23 00:48:05;;;;;;;0.68;0.68;;;19.50;79.30;;;;;;4965279;28;20204;-66
2023/05/23 00:50:32;;;;;;;0.93;0.93;;;18.50;78.10;;;;;;4960039;28;20235;-67
2023/05/23 00:53:01;;;;;;;1.33;1.23;;;18.50;78.10;;;;;;4960125;28;20215;-67
2023/05/23 00:55:29;;;;;;;1.08;0.90;;;18.50;78.10;;;;;;4959804;28;20319;-67
2023/05/23 00:57:56;;;;;;;0.93;0.93;;;18.40;78.20;;;;;;4943564;28;20576;-67
2023/05/23 01:00:25;;;;;;;1.45;1.20;;;18.40;78.30;;;;;;4959922;28;20201;-66
2023/05/23 01:02:54;;;;;;;1.20;1.02;;;18.30;78.20;;;;;;4957862;28;20324;-66
2023/05/23 01:05:23;;;;;;;1.23;1.13;;;18.30;78.20;;;;;;4941086;28;20298;-66
2023/05/23 01:07:51;;;;;;;1.25;1.17;;;18.30;78.20;;;;;;4959142;28;20692;-67
2023/05/23 01:10:23;;;;;;;0.93;0.93;;;18.30;78.30;;;;;;4957477;28;20228;-67
2023/05/23 01:12:58;;;;;;;1.13;1.13;;;18.40;78.40;;;;;;4960524;28;20536;-66
2023/05/23 01:15:32;;;;;;;1.33;1.23;;;18.40;78.40;;;;;;4959741;28;20632;-66
2023/05/23 01:18:07;;;;;;;1.20;1.10;;;18.40;78.40;;;;;;4963517;28;20227;-66
2023/05/23 01:20:38;;;;;;;1.13;1.10;;;18.40;78.40;;;;;;4941070;28;20204;-66
2023/05/23 01:23:18;;;;;;;1.30;1.20;;;18.50;78.50;;;;;;4954170;28;20188;-66
2023/05/23 01:25:58;;;;;;;2.40;1.13;;;18.40;78.40;;;;;;4959268;28;20188;-66
2023/05/23 01:28:31;;;;;;;0.90;0.90;;;18.40;78.50;;;;;;4957873;28;20264;-67
2023/05/23 01:31:00;;;;;;;1.20;1.10;;;18.90;79.20;;;;;;4953828;28;20195;-67
2023/05/23 01:33:29;;;;;;;1.20;1.10;;;18.40;78.80;;;;;;4958520;28;20204;-66
2023/05/23 01:36:00;;;;;;;2.03;1.20;;;18.30;78.90;;;;;;4958035;28;20204;-66
2023/05/23 01:38:27;;;;;;;1.10;1.10;;;19.20;79.90;;;;;;4959090;28;20619;-67
2023/05/23 01:40:54;;;;;;;1.20;1.20;;;18.20;79.00;;;;;;4960283;28;20282;-67
2023/05/23 01:43:22;;;;;;;1.35;1.08;;;18.20;79.20;;;;;;4960244;28;20200;-67
2023/05/23 01:45:56;;;;;;;2.92;1.02;;;18.10;79.30;;;;;;4958201;28;20196;-67
2023/05/23 01:48:26;;;;;;;2.10;1.30;;;18.20;79.50;;;;;;4959242;28;20264;-65
2023/05/23 01:50:53;;;;;;;2.25;1.70;;;18.20;79.60;;;;;;4960504;28;20200;-66
2023/05/23 01:53:22;;;;;;;1.52;1.30;;;18.20;79.60;;;;;;4941883;28;20340;-66
2023/05/23 01:55:50;;;;;;;1.27;1.25;;;18.20;79.80;;;;;;4959936;28;20216;-67
2023/05/23 01:58:18;;;;;;;1.17;1.10;;;18.10;79.80;;;;;;4960414;28;20284;-66
2023/05/23 02:00:46;;;;;;;1.42;1.30;;;18.10;80.00;;;;;;4957810;28;20205;-66
2023/05/23 02:03:15;;;;;;;1.50;1.40;;;18.10;80.10;;;;;;4940847;28;20232;-67
2023/05/23 02:05:42;;;;;;;1.40;1.35;;;18.10;80.10;;;;;;4959554;28;20215;-66
2023/05/23 02:08:09;;;;;;;1.63;1.52;;;18.10;80.20;;;;;;4946153;28;20876;-67
2023/05/23 02:10:38;;;;;;;1.40;1.30;;;18.00;80.20;;;;;;4959473;28;20545;-67
2023/05/23 02:13:05;;;;;;;1.48;1.38;;;18.00;81.00;;;;;;4959129;28;20274;-66
2023/05/23 02:15:32;;;;;;;1.60;1.50;;;18.00;80.50;;;;;;4940797;28;20219;-67
2023/05/23 02:18:01;;;;;;;1.40;1.40;;;17.90;80.60;;;;;;4956869;28;20229;-66
2023/05/23 02:20:30;;;;;;;1.75;1.50;;;17.90;80.70;;;;;;4959696;28;20197;-66
2023/05/23 02:22:57;;;;;;;2.63;1.40;;;18.00;80.90;;;;;;4932788;28;20581;-66
2023/05/23 02:25:24;;;;;;;1.58;1.48;;;17.90;80.80;;;;;;4959852;28;20690;-67
2023/05/23 02:27:51;;;;;;;3.33;1.60;;;17.90;81.00;;;;;;4959924;28;20200;-67
2023/05/23 02:30:19;;;;;;;1.80;1.30;;;17.90;81.20;;;;;;4948101;28;20220;-66
2023/05/23 02:32:47;;;;;;;1.25;1.25;;;17.80;81.20;;;;;;4960166;28;20296;-66
2023/05/23 02:35:15;;;;;;;1.58;1.48;;;17.80;81.40;;;;;;4963350;28;20400;-67
2023/05/23 02:37:43;;;;;;;1.27;1.20;;;17.70;81.40;;;;;;4962197;28;20221;-67
2023/05/23 02:40:11;;;;;;;1.85;1.48;;;17.60;81.50;;;;;;4945526;28;20208;-67
2023/05/23 02:42:38;;;;;;;1.60;1.50;;;17.60;81.90;;;;;;4960199;28;20226;-67
2023/05/23 02:45:06;;;;;;;3.42;1.50;;;17.60;82.00;;;;;;4933866;28;20286;-65
2023/05/23 02:47:34;;;;;;;2.03;1.63;;;17.60;82.20;;;;;;4961893;28;20566;-66
2023/05/23 02:50:01;;;;;;;1.48;1.38;;;17.70;82.30;;;;;;4961011;28;20227;-66
2023/05/23 02:52:28;;;;;;;1.27;1.27;;;17.70;82.20;;;;;;4949415;28;20213;-65
2023/05/23 02:54:57;;;;;;;2.05;1.35;;;17.70;82.30;;;;;;4962660;28;20282;-65
2023/05/23 02:57:25;;;;;;;1.42;1.33;;;17.60;82.40;;;;;;4943923;28;20221;-66
2023/05/23 02:59:53;;;;;;;2.10;1.90;;;17.60;82.60;;;;;;4945135;28;20200;-66
2023/05/23 03:02:21;;;;;;;1.60;1.50;;;17.60;82.80;;;;;;4958186;28;20270;-66
2023/05/23 03:04:49;;;;;;;1.60;1.50;;;17.60;83.10;;;;;;4940056;28;20677;-66
2023/05/23 03:07:17;;;;;;;1.55;1.45;;;17.60;83.10;;;;;;4929860;28;20681;-66
2023/05/23 03:09:44;;;;;;;1.40;1.30;;;17.70;83.30;;;;;;4940452;28;20204;-66
2023/05/23 03:12:12;;;;;;;1.30;1.20;;;17.60;83.30;;;;;;4941313;28;20316;-65
2023/05/23 03:14:40;;;;;;;1.58;1.48;;;17.60;83.50;;;;;;4942438;28;20272;-66
2023/05/23 03:17:07;;;;;;;1.60;1.50;;;17.60;83.70;;;;;;4941628;28;20296;-65
2023/05/23 03:19:35;;;;;;;1.85;1.30;;;17.60;83.80;;;;;;4939744;28;20220;-66
2023/05/23 03:22:02;;;;;;;1.83;1.70;;;17.60;84.00;;;;;;4941409;28;20203;-66
2023/05/23 03:24:30;;;;;;;1.63;1.52;;;17.60;84.00;;;;;;4923953;28;20329;-66
2023/05/23 03:26:57;;;;;;;1.83;1.33;;;17.60;84.30;;;;;;4939726;28;20725;-66
2023/05/23 03:29:26;;;;;;;1.45;1.20;;;17.60;84.40;;;;;;4924588;28;20224;-67
2023/05/23 03:31:53;;;;;;;1.57;1.47;;;17.60;84.50;;;;;;4941173;28;20214;-65
2023/05/23 03:34:22;;;;;;;1.50;1.40;;;17.60;84.70;;;;;;4942849;28;20207;-66
2023/05/23 03:36:49;;;;;;;5.18;1.30;;;17.60;84.80;;;;;;4942346;28;20215;-66
2023/05/23 03:39:17;;;;;;;1.20;1.10;;;17.60;85.00;;;;;;4940227;28;20342;-66
2023/05/23 03:41:44;;;;;;;1.37;1.27;;;17.60;85.00;;;;;;4941779;28;20467;-66
2023/05/23 03:44:11;;;;;;;1.58;1.48;;;17.60;85.10;;;;;;4941538;28;20284;-66
2023/05/23 03:46:40;;;;;;;1.67;1.40;;;17.60;85.20;;;;;;4916023;28;20227;-66
2023/05/23 03:49:07;;;;;;;1.38;1.30;;;17.70;85.40;;;;;;4925359;28;20226;-66
2023/05/23 03:51:35;;;;;;;1.77;1.53;;;17.70;85.50;;;;;;4923781;28;20210;-66
2023/05/23 03:54:03;;;;;;;2.10;1.40;;;17.70;85.50;;;;;;4939076;28;20519;-67
2023/05/23 03:56:30;;;;;;;1.98;1.40;;;17.80;85.70;;;;;;4923700;28;20601;-67
2023/05/23 03:58:57;;;;;;;1.63;1.52;;;17.80;85.70;;;;;;4923729;28;20685;-67
2023/05/23 04:01:25;;;;;;;2.70;1.60;;;17.80;85.80;;;;;;4942500;28;20638;-67
2023/05/23 04:03:53;;;;;;;2.33;1.63;;;17.90;86.00;;;;;;4952665;28;20234;-67
2023/05/23 04:06:22;;;;;;;1.50;1.40;;;18.00;86.10;;;;;;4958002;28;20576;-67
2023/05/23 04:08:49;;;;;;;3.42;1.60;;;17.90;86.10;;;;;;4943974;28;20207;-67
2023/05/23 04:11:16;;;;;;;1.90;1.63;;;17.90;86.30;;;;;;4936455;28;20208;-66
2023/05/23 04:13:45;;;;;;;1.85;1.70;;;18.00;86.50;;;;;;4948480;28;20229;-67
2023/05/23 04:16:13;;;;;;;4.75;1.65;;;18.00;86.50;;;;;;4960969;28;20215;-66
2023/05/23 04:18:42;;;;;;;1.98;1.85;;;18.00;86.40;;;;;;4947831;28;20201;-67
2023/05/23 04:21:11;;;;;;;2.00;1.80;;;18.10;86.40;;;;;;4935740;28;20218;-65
2023/05/23 04:23:46;;;;;;;2.63;1.70;;;18.10;86.30;;;;;;4950717;28;20204;-66
2023/05/23 04:26:13;;;;;;;1.63;1.52;;;18.10;86.30;;;;;;4959467;28;20279;-66
2023/05/23 04:28:47;;;;;;;1.70;1.60;;;18.10;86.30;;;;;;4961248;28;20491;-66
2023/05/23 04:31:15;;;;;;;3.08;2.30;;;18.20;86.40;;;;;;4960054;28;20203;-67
2023/05/23 04:33:42;;;;;;;3.53;2.73;;;18.20;86.40;;;;;;4950073;28;20207;-67
2023/05/23 04:36:11;;;;;;;3.28;2.40;;;18.20;86.40;;;;;;4935020;28;20204;-66
2023/05/23 04:38:42;;;;;;;2.65;2.45;;;18.30;86.60;;;;;;4959569;28;20219;-66
2023/05/23 04:41:10;;;;;;;6.22;2.75;;;18.30;86.60;;;;;;4969878;28;20230;-67
2023/05/23 04:43:58;;;;;;;5.82;2.72;;;18.30;86.60;;;;;;4960042;28;20204;-67
2023/05/23 04:46:29;;;;;;;3.88;2.28;;;18.30;86.70;;;;;;4961092;28;20252;-67
2023/05/23 04:49:25;;;;;;;2.80;2.50;;;18.40;86.90;;;;;;4925071;28;20245;-66
2023/05/23 04:51:54;;;;;;;2.95;2.75;;;18.40;87.00;;;;;;4942953;28;20720;-66
2023/05/23 04:54:26;;;;;;;4.07;2.88;;;18.40;87.10;;;;;;4962076;28;20796;-67
2023/05/23 04:56:55;;;;;;;3.83;2.72;;;18.40;87.20;;;;;;4959708;28;20215;-66
2023/05/23 04:59:26;;;;;;;3.65;2.42;;;18.40;87.20;;;;;;4948378;28;20211;-67
2023/05/23 05:01:53;;;;;;;2.72;2.50;;;18.50;87.30;;;;;;4959580;28;20786;-68
2023/05/23 05:04:21;;;;;;;4.70;3.20;;;18.50;87.40;;;;;;4942919;28;20627;-67
2023/05/23 05:06:49;;;;;;;4.72;2.90;;;16.60;85.60;;;;;;4946717;28;20352;-67
2023/05/23 05:09:18;;;;;;;3.47;2.75;;;18.50;87.70;;;;;;4941812;28;20295;-67
2023/05/23 05:11:47;;;;;;;3.60;3.15;;;18.50;87.80;;;;;;4961374;28;20238;-66
2023/05/23 05:14:15;;;;;;;2.92;2.65;;;18.60;88.00;;;;;;4941616;28;20200;-66
2023/05/23 05:16:43;;;;;;;2.38;2.17;;;18.60;88.00;;;;;;4957398;28;20780;-65
2023/05/23 05:19:11;;;;;;;2.10;1.92;;;18.60;88.10;;;;;;4958822;28;20291;-66
2023/05/23 05:21:38;;;;;;;2.75;2.05;;;18.60;88.00;;;;;;4958892;28;20206;-65
2023/05/23 05:24:08;;;;;;;2.45;2.13;;;18.60;88.10;;;;;;4944772;28;20340;-67
2023/05/23 05:26:37;;;;;;;2.05;1.95;;;18.70;88.30;;;;;;4959352;28;20243;-65
2023/05/23 05:29:04;;;;;;;1.90;1.80;;;18.60;88.20;;;;;;4945497;28;20723;-66
2023/05/23 05:31:32;;;;;;;2.53;2.33;;;18.60;88.30;;;;;;4954691;28;20402;-66
2023/05/23 05:33:59;;;;;;;2.15;1.90;;;18.60;88.40;;;;;;4956726;28;20310;-66
2023/05/23 05:36:27;;;;;;;1.85;1.75;;;18.60;88.50;;;;;;4957205;28;20615;-66
2023/05/23 05:38:55;;;;;;;2.45;1.83;;;18.70;88.70;;;;;;4955305;28;20239;-66
2023/05/23 05:41:22;;;;;;;1.92;1.80;;;18.70;88.80;;;;;;4930654;28;20612;-65
2023/05/23 05:43:53;;;;;;;3.05;2.08;;;18.70;89.00;;;;;;4946073;28;20203;-66
2023/05/23 05:46:21;;;;;;;4.30;1.92;;;18.70;89.10;;;;;;4958677;28;20199;-67
2023/05/23 05:48:50;;;;;;;2.22;2.03;;;18.80;89.50;;;;;;4957805;28;20470;-66
2023/05/23 05:51:18;;;;;;;3.20;2.40;;;18.80;89.60;;;;;;4946868;28;20284;-67
2023/05/23 05:53:46;;;;;;;3.15;2.63;;;18.80;89.80;;;;;;4943673;28;20248;-66
2023/05/23 05:56:13;;;;;;;2.60;2.40;;;18.80;90.00;;;;;;4931819;28;20774;-67
2023/05/23 05:58:40;;;;;;;3.33;3.03;;;18.80;90.10;;;;;;4957132;28;20244;-67
2023/05/23 06:01:11;;;;;;;3.88;3.10;;;18.90;90.30;;;;;;4956580;28;20220;-66
2023/05/23 06:03:38;;;;;;;3.53;3.20;;;18.90;90.40;;;;;;4956297;28;20637;-66
2023/05/23 06:06:07;;;;;;;3.92;2.85;;;18.90;90.50;;;;;;4956132;28;20672;-66
2023/05/23 06:08:34;;;;;;;4.72;3.50;;;19.00;90.60;;;;;;4957841;28;20676;-66
2023/05/23 06:11:02;;;;;;;4.13;3.50;;;19.00;90.70;;;;;;4960640;28;20205;-67
2023/05/23 06:13:29;;;;;;;3.20;2.80;;;19.00;90.70;;;;;;4961880;28;20657;-66
2023/05/23 06:15:57;;;;;;;4.57;3.22;;;19.00;90.70;;;;;;4948892;28;20227;-67
2023/05/23 06:18:25;;;;;;;2.78;2.58;;;19.10;90.80;;;;;;4960791;28;20244;-67
2023/05/23 06:20:53;;;;;;;4.78;2.78;;;19.10;90.80;;;;;;4943884;28;20212;-67
2023/05/23 06:23:21;;;;;;;6.15;2.60;;;19.20;91.00;;;;;;4948777;28;20204;-67
2023/05/23 06:25:49;;;;;;;4.68;2.90;;;19.30;91.10;;;;;;4933208;28;20516;-66
2023/05/23 06:28:16;;;;;;;4.40;2.83;;;19.30;91.40;;;;;;4947782;28;20808;-66
2023/05/23 06:30:46;;;;;;;5.03;2.90;;;19.40;91.60;;;;;;4960435;28;20813;-67
2023/05/23 06:33:13;;;;;;;3.17;2.88;;;19.40;91.60;;;;;;4960247;28;20215;-67
2023/05/23 06:35:41;;;;;;;2.40;2.20;;;19.40;91.80;;;;;;4961338;28;20557;-65
2023/05/23 06:38:09;;;;;;;6.95;2.88;;;19.40;91.70;;;;;;4959245;28;20247;-67
2023/05/23 06:40:36;;;;;;;4.78;2.70;;;19.50;91.80;;;;;;4960483;28;20287;-68
2023/05/23 06:43:03;;;;;;;4.28;3.00;;;19.50;91.90;;;;;;4959446;28;20427;-67
2023/05/23 06:46:06;;;;;;;8.23;2.90;;;19.60;92.10;;;;;;4909651;29;20206;-66
2023/05/23 06:48:33;;;;;;;3.78;3.30;;;19.60;92.20;;;;;;4934942;28;20214;-66
2023/05/23 06:51:02;;;;;;;6.38;3.30;;;19.70;92.30;;;;;;4943258;28;20208;-67
2023/05/23 06:53:29;;;;;;;2.95;2.75;;;19.70;92.30;;;;;;4957508;28;20702;-67
2023/05/23 06:55:56;;;;;;;3.15;2.45;;;19.80;92.40;;;;;;4947977;28;20751;-67
2023/05/23 06:58:25;;;;;;;2.50;2.30;;;19.80;92.40;;;;;;4956641;28;20272;-65
2023/05/23 07:00:55;;;;;;;2.67;2.47;;;19.90;92.40;;;;;;4956957;28;20212;-67
2023/05/23 07:03:26;;;;;;;2.88;2.40;;;20.00;92.50;;;;;;4947212;28;20233;-66
2023/05/23 07:05:57;;;;;;;6.28;2.63;;;20.10;92.50;;;;;;4941817;28;20201;-66
2023/05/23 07:08:28;;;;;;;2.65;2.35;;;20.20;92.40;;;;;;4942870;28;20447;-66
2023/05/23 07:11:01;;;;;;;2.40;2.20;;;20.30;92.30;;;;;;4956968;28;20332;-67
2023/05/23 07:13:35;;;;;;;3.92;2.45;;;20.40;92.10;;;;;;4941902;28;20871;-67
2023/05/23 07:16:02;;;;;;;7.47;2.65;;;20.50;91.90;;;;;;4959690;28;20212;-67
2023/05/23 07:18:31;;;;;;;4.82;2.92;;;20.60;91.40;;;;;;4945962;28;20231;-66
2023/05/23 07:20:58;;;;;;;2.97;1.90;;;20.70;91.00;;;;;;4941455;28;20575;-67
2023/05/23 07:23:27;;;;;;;2.08;1.98;;;20.80;90.80;;;;;;4942001;28;20377;-66
2023/05/23 07:25:55;;;;;;;3.70;2.60;;;20.90;90.70;;;;;;4941196;28;20287;-67
2023/05/23 07:28:26;;;;;;;4.00;3.08;;;21.00;90.40;;;;;;4956594;28;20664;-66
2023/05/23 07:30:56;;;;;;;3.38;2.85;;;21.10;89.80;;;;;;4946759;28;20669;-67
2023/05/23 07:33:24;;;;;;;3.08;2.20;;;21.20;88.60;;;;;;4957495;28;20223;-66
2023/05/23 07:35:53;;;;;;;3.85;2.42;;;21.20;88.40;;;;;;4946492;28;20196;-66
2023/05/23 07:38:21;;;;;;;1.95;1.80;;;21.30;88.10;;;;;;4939755;28;20221;-67
2023/05/23 07:40:49;;;;;;;1.90;1.80;;;21.40;87.90;;;;;;4958144;28;20196;-66
2023/05/23 07:43:16;;;;;;;2.53;2.10;;;21.50;87.30;;;;;;4945724;28;20307;-66
2023/05/23 07:45:43;;;;;;;2.45;1.98;;;21.50;85.70;;;;;;4946741;28;20239;-66
2023/05/23 07:48:11;;;;;;;2.67;2.10;;;21.60;85.40;;;;;;4956300;28;20790;-67
2023/05/23 07:50:40;;;;;;;3.25;2.30;;;21.70;83.40;;;;;;4956964;28;20279;-69
2023/05/23 07:53:08;;;;;;;6.68;2.22;;;21.80;82.80;;;;;;4956935;28;20292;-67
2023/05/23 07:55:36;;;;;;;2.28;1.90;;;21.80;81.60;;;;;;4958139;28;20201;-67
2023/05/23 07:58:05;;;;;;;4.22;2.20;;;21.90;81.50;;;;;;4956447;28;20266;-67
2023/05/23 08:00:32;;;;;;;2.13;2.03;;;21.90;80.40;;;;;;4958229;28;20200;-67
2023/05/23 08:03:08;;;;;;;4.88;2.63;;;22.10;79.80;;;;;;4956609;28;20610;-65
2023/05/23 08:05:42;;;;;;;3.00;2.65;;;22.10;78.00;;;;;;4956350;28;20208;-65
2023/05/23 08:08:09;;;;;;;2.10;2.00;;;22.20;76.20;;;;;;4957472;28;20613;-65
2023/05/23 08:10:38;;;;;;;5.22;2.22;;;22.30;74.70;;;;;;4943613;28;20295;-65
2023/05/23 08:13:12;;;;;;;2.20;2.00;;;22.40;74.00;;;;;;4955690;28;20211;-65
2023/05/23 08:15:50;;;;;;;1.95;1.65;;;22.40;73.90;;;;;;4956510;28;20226;-64
2023/05/23 08:18:23;;;;;;;2.30;2.10;;;22.50;74.00;;;;;;4928915;28;20385;-64
2023/05/23 08:20:51;;;;;;;4.68;2.33;;;22.50;72.70;;;;;;4939374;28;20216;-65
2023/05/23 08:23:19;;;;;;;2.70;2.33;;;22.60;72.00;;;;;;4945083;28;20201;-65
2023/05/23 08:25:46;;;;;;;2.58;2.38;;;22.60;72.50;;;;;;4958099;28;20208;-65
2023/05/23 08:28:15;;;;;;;1.88;1.77;;;22.70;72.90;;;;;;4955817;28;20205;-65
2023/05/23 08:30:49;;;;;;;2.38;2.15;;;22.80;73.10;;;;;;4941519;28;20631;-65
2023/05/23 08:33:16;;;;;;;2.13;2.00;;;22.90;72.00;;;;;;4945706;28;20207;-65
2023/05/23 08:35:46;;;;;;;3.55;2.42;;;22.90;72.00;;;;;;4929432;28;20207;-65
2023/05/23 08:38:16;;;;;;;2.35;2.15;;;23.00;71.30;;;;;;4945285;28;20213;-66
2023/05/23 08:40:56;;;;;;;1.95;1.85;;;23.10;70.60;;;;;;4955847;28;20203;-66
2023/05/23 08:43:27;;;;;;;2.10;2.00;;;23.10;70.90;;;;;;4940130;28;20196;-65
2023/05/23 08:45:56;;;;;;;1.85;1.60;;;23.20;71.00;;;;;;4944463;28;20201;-65
2023/05/23 08:48:25;;;;;;;2.15;1.70;;;23.10;70.80;;;;;;4955697;28;20192;-65
2023/05/23 08:50:53;;;;;;;3.13;1.60;;;23.20;70.70;;;;;;4941476;28;20392;-65
2023/05/23 08:53:27;;;;;;;2.10;1.90;;;23.20;70.60;;;;;;4940797;28;20205;-65
2023/05/23 08:56:02;;;;;;;2.65;2.45;;;23.20;70.20;;;;;;4956232;28;20204;-65
2023/05/23 08:58:39;;;;;;;2.72;2.53;;;23.20;68.80;;;;;;4943408;28;20311;-66
2023/05/23 09:01:08;;;;;;;3.15;2.60;;;23.20;68.30;;;;;;4955947;28;20227;-65
2023/05/23 09:03:36;;;;;;;2.88;2.67;;;23.20;67.90;;;;;;4952329;28;20233;-66
2023/05/23 09:06:24;;;;;;;3.10;2.78;;;23.20;67.20;;;;;;4952390;28;20197;-65
2023/05/23 09:08:52;;;;;;;3.15;2.85;;;23.20;67.50;;;;;;4956555;28;20200;-65
2023/05/23 09:11:23;;;;;;;2.88;2.67;;;23.10;67.10;;;;;;4947708;28;20604;-66
2023/05/23 09:13:51;;;;;;;6.20;3.28;;;23.20;66.90;;;;;;4957873;28;20200;-65
2023/05/23 09:16:20;;;;;;;3.30;2.35;;;23.20;66.70;;;;;;4945524;28;20544;-65
2023/05/23 09:18:51;;;;;;;2.85;2.13;;;23.20;65.80;;;;;;4942326;28;20754;-65
2023/05/23 09:21:21;;;;;;;2.72;2.33;;;23.30;66.10;;;;;;4943660;28;20205;-66
2023/05/23 09:24:12;;;;;;;6.57;2.83;;;23.30;65.00;;;;;;4947617;28;20209;-66
2023/05/23 09:26:39;;;;;;;3.80;2.92;;;23.30;64.60;;;;;;4956450;28;20192;-65
2023/05/23 09:29:08;;;;;;;2.70;2.50;;;23.30;64.70;;;;;;4944001;28;20692;-65
2023/05/23 09:31:36;;;;;;;2.40;2.20;;;23.40;65.10;;;;;;4944401;28;20204;-66
2023/05/23 09:34:03;;;;;;;3.05;2.30;;;23.40;65.60;;;;;;4945468;28;20216;-66
2023/05/23 09:36:33;;;;;;;2.88;2.50;;;23.50;65.60;;;;;;4955354;28;20327;-65
2023/05/23 09:39:04;;;;;;;3.65;2.33;;;23.60;65.40;;;;;;4957725;28;20783;-64
2023/05/23 09:41:34;;;;;;;2.90;2.70;;;23.60;64.90;;;;;;4956474;28;20205;-64
2023/05/23 09:44:06;;;;;;;4.10;2.63;;;23.70;64.80;;;;;;4959545;28;20664;-66
2023/05/23 09:46:36;;;;;;;3.40;2.92;;;23.80;63.90;;;;;;4960840;28;20193;-65
2023/05/23 09:49:03;;;;;;;2.85;2.65;;;23.90;62.80;;;;;;4962272;28;20564;-65
2023/05/23 09:51:31;;;;;;;2.20;2.10;;;23.90;62.80;;;;;;4932727;28;20204;-67
2023/05/23 09:53:58;;;;;;;2.17;1.98;;;24.00;63.00;;;;;;4959177;28;20263;-65
2023/05/23 09:56:27;;;;;;;3.35;2.20;;;24.10;63.20;;;;;;4962403;28;20672;-65
2023/05/23 09:58:56;;;;;;;3.92;2.03;;;24.00;63.20;;;;;;4960361;28;20710;-66
2023/05/23 10:01:25;;;;;;;1.85;1.67;;;24.10;62.80;;;;;;4960210;28;20680;-65
2023/05/23 10:03:56;;;;;;;1.52;1.48;;;24.10;63.10;;;;;;4960190;28;20224;-65
2023/05/23 10:06:26;;;;;;;1.60;1.50;;;24.10;62.80;;;;;;4961023;28;20271;-66
2023/05/23 10:08:59;;;;;;;1.88;1.77;;;24.20;62.70;;;;;;4953603;28;20224;-65
2023/05/23 10:12:00;;;;;;;2.42;2.22;;;24.20;62.60;;;;;;4960709;28;20200;-65
2023/05/23 10:14:29;;;;;;;2.17;1.98;;;24.20;62.20;;;;;;4943225;28;20214;-66
2023/05/23 10:17:06;;;;;;;2.08;1.98;;;24.30;62.10;;;;;;4956320;28;20446;-65
2023/05/23 10:19:42;;;;;;;2.20;2.10;;;24.40;62.30;;;;;;4928118;28;20367;-66
2023/05/23 10:22:12;;;;;;;4.20;2.08;;;24.50;62.30;;;;;;4936244;28;20211;-66
2023/05/23 10:24:40;;;;;;;2.22;2.13;;;24.50;62.20;;;;;;4961663;28;20192;-65
2023/05/23 10:27:08;;;;;;;2.45;2.30;;;24.50;61.80;;;;;;4942520;28;20215;-65
2023/05/23 10:29:35;;;;;;;2.05;1.95;;;24.60;61.50;;;;;;4959929;28;20201;-65
2023/05/23 10:32:04;;;;;;;2.17;2.00;;;24.50;61.50;;;;;;4954251;28;20708;-66
2023/05/23 10:34:37;;;;;;;1.92;1.83;;;24.60;61.80;;;;;;4953213;28;20221;-65
2023/05/23 10:37:07;;;;;;;1.70;1.60;;;24.70;61.90;;;;;;4950102;28;20244;-65
2023/05/23 10:39:46;;;;;;;2.25;2.10;;;24.70;62.00;;;;;;4956177;28;20703;-66
2023/05/23 10:42:20;;;;;;;2.40;2.30;;;24.70;61.40;;;;;;4960816;28;20199;-65
2023/05/23 10:44:47;;;;;;;2.28;2.17;;;24.80;61.60;;;;;;4960608;28;20272;-65
2023/05/23 10:47:27;;;;;;;2.60;2.40;;;24.80;61.20;;;;;;4959591;28;20196;-65
2023/05/23 10:49:55;;;;;;;3.25;2.58;;;24.80;61.00;;;;;;4951955;28;20216;-65
2023/05/23 10:52:26;;;;;;;2.70;2.50;;;24.90;60.40;;;;;;4954641;28;20205;-65
2023/05/23 10:54:55;;;;;;;2.30;2.10;;;24.90;60.00;;;;;;4959445;28;20306;-64
2023/05/23 10:57:26;;;;;;;2.60;2.40;;;25.00;60.30;;;;;;4958452;28;20288;-65
2023/05/23 10:59:54;;;;;;;2.90;2.70;;;25.00;60.20;;;;;;4959915;28;20237;-66
2023/05/23 11:02:26;;;;;;;2.63;2.42;;;25.00;60.20;;;;;;4958338;28;20643;-65
2023/05/23 11:05:23;;;;;;;2.58;2.38;;;25.00;60.10;;;;;;4959137;28;20541;-65
2023/05/23 11:08:10;;;;;;;5.57;2.55;;;24.90;59.50;;;;;;4957704;28;20261;-65
2023/05/23 11:10:56;;;;;;;2.45;2.25;;;24.90;58.00;;;;;;4958458;28;20585;-66
2023/05/23 11:13:24;;;;;;;4.63;2.28;;;24.90;58.40;;;;;;4941407;28;20315;-66
2023/05/23 11:15:51;;;;;;;2.58;2.38;;;25.00;58.70;;;;;;4958806;28;20207;-66
2023/05/23 11:18:24;;;;;;;2.50;2.30;;;25.00;59.50;;;;;;4958607;28;20228;-66
2023/05/23 11:20:54;;;;;;;2.15;2.05;;;25.10;59.20;;;;;;4943437;28;20588;-66
2023/05/23 11:23:22;;;;;;;2.53;2.33;;;25.20;58.40;;;;;;4958982;28;20287;-66
2023/05/23 11:25:52;;;;;;;2.97;2.78;;;25.20;57.50;;;;;;4956848;28;20196;-65
2023/05/23 11:28:20;;;;;;;2.42;2.30;;;25.40;57.30;;;;;;4952098;28;20200;-65
2023/05/23 11:30:51;;;;;;;2.10;2.00;;;25.20;57.50;;;;;;4942559;28;20192;-65
2023/05/23 11:33:19;;;;;;;2.60;2.40;;;25.30;57.60;;;;;;4959229;28;20371;-65
2023/05/23 11:35:48;;;;;;;2.38;2.13;;;26.00;58.10;;;;;;4952898;28;20222;-66
2023/05/23 11:38:17;;;;;;;2.13;2.03;;;25.40;57.60;;;;;;4952985;28;20283;-65
2023/05/23 11:40:46;;;;;;;4.10;2.40;;;25.40;57.60;;;;;;4960289;28;20204;-65
2023/05/23 11:43:15;;;;;;;2.22;2.13;;;25.40;57.30;;;;;;4958594;28;20310;-65
2023/05/23 11:45:42;;;;;;;2.05;1.95;;;25.40;57.00;;;;;;4939886;28;20204;-65
2023/05/23 11:48:10;;;;;;;1.70;1.60;;;25.30;57.10;;;;;;4945878;28;20590;-66
2023/05/23 11:50:45;;;;;;;2.33;2.13;;;25.10;56.80;;;;;;4940760;28;20236;-64
2023/05/23 11:53:12;;;;;;;3.53;2.30;;;25.00;56.70;;;;;;4937946;28;20539;-64
2023/05/23 11:55:48;;;;;;;2.20;2.00;;;25.00;56.50;;;;;;4948005;28;20223;-65
2023/05/23 11:58:15;;;;;;;2.75;1.95;;;25.10;56.80;;;;;;4956903;28;20192;-65
2023/05/23 12:00:46;;;;;;;1.60;1.50;;;25.10;57.00;;;;;;4945150;28;20209;-66
2023/05/23 12:03:13;;;;;;;3.00;1.80;;;25.10;57.10;;;;;;4941445;28;20241;-66
2023/05/23 12:05:43;;;;;;;2.13;1.92;;;25.00;57.00;;;;;;4957080;28;20230;-65
2023/05/23 12:08:12;;;;;;;3.80;1.95;;;25.10;56.60;;;;;;4958291;28;20215;-64
2023/05/23 12:10:51;;;;;;;2.88;2.00;;;25.10;56.30;;;;;;4958013;28;20239;-64
2023/05/23 12:13:18;;;;;;;2.45;1.85;;;25.10;55.50;;;;;;4957619;28;20608;-65
2023/05/23 12:15:46;;;;;;;2.28;1.95;;;25.00;55.30;;;;;;4956784;28;20283;-64
2023/05/23 12:18:13;;;;;;;4.15;2.20;;;25.00;55.50;;;;;;4958402;28;20201;-63
2023/05/23 12:20:41;;;;;;;1.98;1.85;;;25.00;55.70;;;;;;4960785;28;20216;-64
2023/05/23 12:23:19;;;;;;;2.13;1.90;;;25.00;55.90;;;;;;4957657;28;20206;-64
2023/05/23 12:25:52;;;;;;;2.25;2.05;;;25.10;56.20;;;;;;4958869;28;20283;-64
2023/05/23 12:28:19;;;;;;;1.90;1.80;;;25.10;56.20;;;;;;4957297;28;20227;-65
2023/05/23 12:30:47;;;;;;;3.53;2.40;;;25.10;56.10;;;;;;4956196;28;20207;-65
2023/05/23 12:33:14;;;;;;;2.30;2.15;;;25.10;55.60;;;;;;4958306;28;20707;-65
2023/05/23 12:35:45;;;;;;;2.10;2.00;;;25.10;55.50;;;;;;4957355;28;20201;-65
2023/05/23 12:38:16;;;;;;;2.10;2.00;;;25.10;55.00;;;;;;4957650;28;20196;-65
2023/05/23 12:40:44;;;;;;;2.40;1.92;;;25.20;54.70;;;;;;4947342;28;20303;-64
2023/05/23 12:43:15;;;;;;;2.10;1.90;;;25.30;54.90;;;;;;4957671;28;20196;-65
2023/05/23 12:45:43;;;;;;;2.90;1.88;;;25.20;55.10;;;;;;4957707;28;20206;-64
2023/05/23 12:48:11;;;;;;;2.00;1.88;;;25.20;55.20;;;;;;4957701;28;20291;-64
2023/05/23 12:50:39;;;;;;;2.22;2.03;;;25.30;55.30;;;;;;4961304;28;20200;-65
2023/05/23 12:53:06;;;;;;;2.30;2.20;;;25.30;55.40;;;;;;4957075;28;20654;-64
2023/05/23 12:55:33;;;;;;;1.95;1.85;;;25.40;55.20;;;;;;4947737;28;20256;-63
2023/05/23 12:58:00;;;;;;;2.10;2.00;;;25.40;54.90;;;;;;4958156;28;20667;-64
2023/05/23 13:00:28;;;;;;;2.47;2.03;;;25.40;54.50;;;;;;4958810;28;20248;-64